sensor_id;sensor_type;location;lat;lon;timestamp;P1;durP1;ratioP1;P2;durP2;ratioP2
17197;SDS011;8715;51.010;6.812;2022-07-11T12:16:15;171.37;;;117.93;;
17197;SDS011;8715;51.010;6.812;2022-07-11T12:19:00;186.00;;;120.37;;
17197;SDS011;8715;51.010;6.812;2022-07-11T12:21:27;189.80;;;124.17;;
17197;SDS011;8715;51.010;6.812;2022-07-11T12:23:54;183.17;;;123.13;;
17197;SDS011;8715;51.010;6.812;2022-07-11T12:26:21;157.00;;;118.20;;
17197;SDS011;8715;51.010;6.812;2022-07-11T12:29:06;176.80;;;124.00;;
17197;SDS011;8715;51.010;6.812;2022-07-11T12:31:42;183.00;;;122.77;;
17197;SDS011;8715;51.010;6.812;2022-07-11T12:34:09;183.73;;;124.00;;
17197;SDS011;8715;51.010;6.812;2022-07-11T12:36:35;177.27;;;122.90;;
17197;SDS011;8715;51.010;6.812;2022-07-11T12:39:00;208.40;;;126.73;;
17197;SDS011;8715;51.010;6.812;2022-07-11T12:41:25;174.90;;;120.43;;
17197;SDS011;8715;51.010;6.812;2022-07-11T12:43:54;166.33;;;119.47;;
17197;SDS011;8715;51.010;6.812;2022-07-11T12:46:38;169.50;;;118.63;;
17197;SDS011;8715;51.010;6.812;2022-07-11T12:49:04;199.33;;;123.30;;
17197;SDS011;8715;51.010;6.812;2022-07-11T12:51:31;170.27;;;119.10;;
17197;SDS011;8715;51.010;6.812;2022-07-11T12:54:14;167.43;;;118.33;;
17197;SDS011;8715;51.010;6.812;2022-07-11T12:56:53;144.23;;;114.03;;
17197;SDS011;8715;51.010;6.812;2022-07-11T12:59:21;191.80;;;119.73;;
17197;SDS011;8715;51.010;6.812;2022-07-11T13:01:53;155.77;;;114.77;;
17197;SDS011;8715;51.010;6.812;2022-07-11T13:10:23;160.27;;;116.50;;
17197;SDS011;8715;51.010;6.812;2022-07-11T13:12:49;159.60;;;117.27;;
17197;SDS011;8715;51.010;6.812;2022-07-11T13:15:17;167.33;;;118.40;;
17197;SDS011;8715;51.010;6.812;2022-07-11T13:17:44;159.97;;;117.23;;
17197;SDS011;8715;51.010;6.812;2022-07-11T13:20:14;156.13;;;116.50;;
17197;SDS011;8715;51.010;6.812;2022-07-11T13:22:42;154.90;;;116.03;;
17197;SDS011;8715;51.010;6.812;2022-07-11T13:25:08;165.40;;;118.27;;
17197;SDS011;8715;51.010;6.812;2022-07-11T13:27:35;166.73;;;117.50;;
17197;SDS011;8715;51.010;6.812;2022-07-11T13:30:01;169.30;;;120.03;;
17197;SDS011;8715;51.010;6.812;2022-07-11T13:32:28;169.73;;;119.83;;
17197;SDS011;8715;51.010;6.812;2022-07-11T13:34:54;172.97;;;120.43;;
17197;SDS011;8715;51.010;6.812;2022-07-11T13:37:19;175.27;;;119.83;;
17197;SDS011;8715;51.010;6.812;2022-07-11T13:39:44;176.03;;;120.43;;
17197;SDS011;8715;51.010;6.812;2022-07-11T13:42:10;176.77;;;121.07;;
17197;SDS011;8715;51.010;6.812;2022-07-11T13:44:36;172.90;;;119.17;;
17197;SDS011;8715;51.010;6.812;2022-07-11T13:47:01;175.47;;;120.10;;
17197;SDS011;8715;51.010;6.812;2022-07-11T13:49:26;183.07;;;124.50;;
17197;SDS011;8715;51.010;6.812;2022-07-11T13:51:54;177.63;;;121.87;;
17197;SDS011;8715;51.010;6.812;2022-07-11T13:54:19;180.13;;;123.83;;
17197;SDS011;8715;51.010;6.812;2022-07-11T13:56:44;174.73;;;122.47;;
17197;SDS011;8715;51.010;6.812;2022-07-11T13:59:10;207.07;;;128.37;;
17197;SDS011;8715;51.010;6.812;2022-07-11T14:01:35;184.47;;;124.10;;
17197;SDS011;8715;51.010;6.812;2022-07-11T14:04:00;183.87;;;124.83;;
17197;SDS011;8715;51.010;6.812;2022-07-11T14:06:26;175.37;;;123.03;;
17197;SDS011;8715;51.010;6.812;2022-07-11T14:08:51;183.07;;;124.77;;
17197;SDS011;8715;51.010;6.812;2022-07-11T14:11:17;184.37;;;126.07;;
17197;SDS011;8715;51.010;6.812;2022-07-11T14:13:42;184.67;;;125.80;;
17197;SDS011;8715;51.010;6.812;2022-07-11T14:16:08;190.57;;;128.00;;
17197;SDS011;8715;51.010;6.812;2022-07-11T14:18:33;192.00;;;128.23;;
17197;SDS011;8715;51.010;6.812;2022-07-11T14:20:59;200.97;;;130.60;;
17197;SDS011;8715;51.010;6.812;2022-07-11T14:23:24;196.87;;;130.17;;
17197;SDS011;8715;51.010;6.812;2022-07-11T14:25:50;206.83;;;132.93;;
17197;SDS011;8715;51.010;6.812;2022-07-11T14:28:17;206.27;;;133.53;;
17197;SDS011;8715;51.010;6.812;2022-07-11T14:30:43;202.93;;;133.33;;
17197;SDS011;8715;51.010;6.812;2022-07-11T14:33:09;191.23;;;130.67;;
17197;SDS011;8715;51.010;6.812;2022-07-11T14:35:34;224.43;;;133.70;;
17197;SDS011;8715;51.010;6.812;2022-07-11T14:38:00;195.83;;;128.77;;
17197;SDS011;8715;51.010;6.812;2022-07-11T14:40:25;191.17;;;129.17;;
17197;SDS011;8715;51.010;6.812;2022-07-11T14:42:51;213.90;;;134.17;;
17197;SDS011;8715;51.010;6.812;2022-07-11T14:45:16;197.03;;;132.13;;
17197;SDS011;8715;51.010;6.812;2022-07-11T14:47:42;208.27;;;131.10;;
17197;SDS011;8715;51.010;6.812;2022-07-11T14:50:07;199.03;;;130.87;;
17197;SDS011;8715;51.010;6.812;2022-07-11T14:52:34;196.13;;;128.53;;
17197;SDS011;8715;51.010;6.812;2022-07-11T14:54:59;199.10;;;128.67;;
17197;SDS011;8715;51.010;6.812;2022-07-11T14:57:25;183.37;;;127.33;;
17197;SDS011;8715;51.010;6.812;2022-07-11T14:59:51;199.83;;;130.40;;
17197;SDS011;8715;51.010;6.812;2022-07-11T15:02:16;202.77;;;129.80;;
17197;SDS011;8715;51.010;6.812;2022-07-11T15:05:02;212.63;;;129.87;;
17197;SDS011;8715;51.010;6.812;2022-07-11T15:07:27;220.07;;;130.00;;
17197;SDS011;8715;51.010;6.812;2022-07-11T15:10:12;196.83;;;126.90;;
17197;SDS011;8715;51.010;6.812;2022-07-11T15:12:55;203.43;;;127.50;;
17197;SDS011;8715;51.010;6.812;2022-07-11T15:15:21;207.13;;;126.63;;
17197;SDS011;8715;51.010;6.812;2022-07-11T15:17:46;221.37;;;128.70;;
17197;SDS011;8715;51.010;6.812;2022-07-11T15:20:11;182.10;;;122.13;;
17197;SDS011;8715;51.010;6.812;2022-07-11T15:22:37;194.37;;;122.47;;
17197;SDS011;8715;51.010;6.812;2022-07-11T15:25:03;201.70;;;122.80;;
17197;SDS011;8715;51.010;6.812;2022-07-11T15:27:29;207.83;;;125.53;;
17197;SDS011;8715;51.010;6.812;2022-07-11T15:29:54;191.93;;;122.60;;
17197;SDS011;8715;51.010;6.812;2022-07-11T15:32:19;197.40;;;123.83;;
17197;SDS011;8715;51.010;6.812;2022-07-11T15:34:45;209.53;;;125.90;;
17197;SDS011;8715;51.010;6.812;2022-07-11T15:37:10;183.13;;;118.83;;
17197;SDS011;8715;51.010;6.812;2022-07-11T15:39:35;200.97;;;122.17;;
17197;SDS011;8715;51.010;6.812;2022-07-11T15:42:01;211.43;;;124.47;;
17197;SDS011;8715;51.010;6.812;2022-07-11T15:44:26;191.63;;;122.77;;
17197;SDS011;8715;51.010;6.812;2022-07-11T15:46:52;186.50;;;121.60;;
17197;SDS011;8715;51.010;6.812;2022-07-11T15:49:17;231.60;;;130.20;;
17197;SDS011;8715;51.010;6.812;2022-07-11T15:51:42;200.10;;;123.60;;
17197;SDS011;8715;51.010;6.812;2022-07-11T15:54:08;188.17;;;121.90;;
17197;SDS011;8715;51.010;6.812;2022-07-11T15:56:33;176.10;;;120.30;;
17197;SDS011;8715;51.010;6.812;2022-07-11T15:58:59;188.10;;;123.37;;
17197;SDS011;8715;51.010;6.812;2022-07-11T16:01:24;196.13;;;122.53;;
17197;SDS011;8715;51.010;6.812;2022-07-11T16:03:57;181.00;;;121.00;;
17197;SDS011;8715;51.010;6.812;2022-07-11T16:06:24;187.80;;;122.20;;
17197;SDS011;8715;51.010;6.812;2022-07-11T16:08:50;190.10;;;121.93;;
17197;SDS011;8715;51.010;6.812;2022-07-11T16:11:15;188.97;;;123.50;;
17197;SDS011;8715;51.010;6.812;2022-07-11T16:13:40;202.50;;;126.70;;
17197;SDS011;8715;51.010;6.812;2022-07-11T16:16:06;197.43;;;125.07;;
17197;SDS011;8715;51.010;6.812;2022-07-11T16:18:32;202.33;;;127.97;;
17197;SDS011;8715;51.010;6.812;2022-07-11T16:20:58;193.40;;;126.40;;
17197;SDS011;8715;51.010;6.812;2022-07-11T16:23:24;203.43;;;126.40;;
17197;SDS011;8715;51.010;6.812;2022-07-11T16:25:49;200.43;;;126.43;;
17197;SDS011;8715;51.010;6.812;2022-07-11T16:28:15;196.10;;;123.30;;
17197;SDS011;8715;51.010;6.812;2022-07-11T16:30:41;195.20;;;125.13;;
17197;SDS011;8715;51.010;6.812;2022-07-11T16:33:06;198.43;;;125.00;;
17197;SDS011;8715;51.010;6.812;2022-07-11T16:35:32;204.60;;;125.60;;
17197;SDS011;8715;51.010;6.812;2022-07-11T16:37:57;194.43;;;123.53;;
17197;SDS011;8715;51.010;6.812;2022-07-11T16:40:24;200.57;;;124.63;;
17197;SDS011;8715;51.010;6.812;2022-07-11T16:43:08;194.87;;;123.23;;
17197;SDS011;8715;51.010;6.812;2022-07-11T16:45:46;181.73;;;121.10;;
17197;SDS011;8715;51.010;6.812;2022-07-11T16:48:20;198.90;;;123.83;;
17197;SDS011;8715;51.010;6.812;2022-07-11T16:50:46;195.67;;;122.07;;
17197;SDS011;8715;51.010;6.812;2022-07-11T16:53:12;199.47;;;123.03;;
17197;SDS011;8715;51.010;6.812;2022-07-11T16:55:38;197.43;;;123.70;;
17197;SDS011;8715;51.010;6.812;2022-07-11T16:58:04;191.17;;;122.53;;
17197;SDS011;8715;51.010;6.812;2022-07-11T17:00:30;193.83;;;122.80;;
17197;SDS011;8715;51.010;6.812;2022-07-11T17:02:55;206.83;;;124.53;;
17197;SDS011;8715;51.010;6.812;2022-07-11T17:05:20;189.53;;;120.37;;
17197;SDS011;8715;51.010;6.812;2022-07-11T17:07:46;191.83;;;121.53;;
17197;SDS011;8715;51.010;6.812;2022-07-11T17:10:33;192.60;;;122.10;;
17197;SDS011;8715;51.010;6.812;2022-07-11T17:12:59;220.00;;;124.60;;
17197;SDS011;8715;51.010;6.812;2022-07-11T17:15:24;190.03;;;123.03;;
17197;SDS011;8715;51.010;6.812;2022-07-11T17:17:49;195.43;;;123.07;;
17197;SDS011;8715;51.010;6.812;2022-07-11T17:20:15;189.47;;;123.97;;
17197;SDS011;8715;51.010;6.812;2022-07-11T17:22:40;193.13;;;123.87;;
17197;SDS011;8715;51.010;6.812;2022-07-11T17:25:06;216.20;;;126.37;;
17197;SDS011;8715;51.010;6.812;2022-07-11T17:27:31;194.70;;;123.90;;
17197;SDS011;8715;51.010;6.812;2022-07-11T17:29:57;191.43;;;124.47;;
17197;SDS011;8715;51.010;6.812;2022-07-11T17:32:22;188.30;;;124.20;;
17197;SDS011;8715;51.010;6.812;2022-07-11T17:34:48;196.40;;;125.53;;
17197;SDS011;8715;51.010;6.812;2022-07-11T17:37:14;199.73;;;126.03;;
17197;SDS011;8715;51.010;6.812;2022-07-11T17:39:39;219.53;;;128.83;;
17197;SDS011;8715;51.010;6.812;2022-07-11T17:42:05;191.80;;;125.30;;
17197;SDS011;8715;51.010;6.812;2022-07-11T17:44:30;192.20;;;125.70;;
17197;SDS011;8715;51.010;6.812;2022-07-11T17:46:55;190.37;;;125.17;;
17197;SDS011;8715;51.010;6.812;2022-07-11T17:49:23;191.53;;;125.20;;
17197;SDS011;8715;51.010;6.812;2022-07-11T17:51:48;194.93;;;125.07;;
17197;SDS011;8715;51.010;6.812;2022-07-11T17:54:13;213.47;;;129.03;;
17197;SDS011;8715;51.010;6.812;2022-07-11T17:56:39;187.07;;;124.03;;
17197;SDS011;8715;51.010;6.812;2022-07-11T17:59:05;185.93;;;122.07;;
17197;SDS011;8715;51.010;6.812;2022-07-11T18:01:30;196.13;;;125.93;;
17197;SDS011;8715;51.010;6.812;2022-07-11T18:03:57;196.73;;;124.70;;
17197;SDS011;8715;51.010;6.812;2022-07-11T18:06:22;202.17;;;125.23;;
17197;SDS011;8715;51.010;6.812;2022-07-11T18:08:48;187.60;;;124.77;;
17197;SDS011;8715;51.010;6.812;2022-07-11T18:11:13;198.20;;;125.90;;
17197;SDS011;8715;51.010;6.812;2022-07-11T18:13:40;186.20;;;124.77;;
17197;SDS011;8715;51.010;6.812;2022-07-11T18:16:05;196.77;;;126.70;;
17197;SDS011;8715;51.010;6.812;2022-07-11T18:18:30;190.90;;;125.37;;
17197;SDS011;8715;51.010;6.812;2022-07-11T18:20:56;202.13;;;126.43;;
17197;SDS011;8715;51.010;6.812;2022-07-11T18:23:21;183.47;;;124.07;;
17197;SDS011;8715;51.010;6.812;2022-07-11T18:25:47;190.07;;;124.37;;
17197;SDS011;8715;51.010;6.812;2022-07-11T18:28:12;191.03;;;125.17;;
17197;SDS011;8715;51.010;6.812;2022-07-11T18:30:38;181.30;;;123.80;;
17197;SDS011;8715;51.010;6.812;2022-07-11T18:33:03;188.83;;;124.43;;
17197;SDS011;8715;51.010;6.812;2022-07-11T18:35:28;224.13;;;128.13;;
17197;SDS011;8715;51.010;6.812;2022-07-11T18:37:54;230.17;;;129.23;;
17197;SDS011;8715;51.010;6.812;2022-07-11T18:40:19;240.17;;;130.57;;
17197;SDS011;8715;51.010;6.812;2022-07-11T18:43:13;185.80;;;123.13;;
17197;SDS011;8715;51.010;6.812;2022-07-11T18:45:39;200.53;;;124.97;;
17197;SDS011;8715;51.010;6.812;2022-07-11T18:48:05;181.33;;;120.10;;
17197;SDS011;8715;51.010;6.812;2022-07-11T18:50:30;179.13;;;121.40;;
17197;SDS011;8715;51.010;6.812;2022-07-11T18:52:56;179.40;;;121.50;;
17197;SDS011;8715;51.010;6.812;2022-07-11T18:55:21;179.37;;;122.23;;
17197;SDS011;8715;51.010;6.812;2022-07-11T18:57:46;182.17;;;122.50;;
17197;SDS011;8715;51.010;6.812;2022-07-11T19:00:14;181.93;;;121.03;;
17197;SDS011;8715;51.010;6.812;2022-07-11T19:02:41;193.90;;;122.77;;
17197;SDS011;8715;51.010;6.812;2022-07-11T19:05:07;177.03;;;119.63;;
17197;SDS011;8715;51.010;6.812;2022-07-11T19:07:33;185.87;;;123.37;;
17197;SDS011;8715;51.010;6.812;2022-07-11T19:09:58;181.70;;;122.23;;
17197;SDS011;8715;51.010;6.812;2022-07-11T19:12:24;185.87;;;122.30;;
17197;SDS011;8715;51.010;6.812;2022-07-11T19:14:51;172.03;;;120.53;;
17197;SDS011;8715;51.010;6.812;2022-07-11T19:17:17;188.17;;;123.30;;
17197;SDS011;8715;51.010;6.812;2022-07-11T19:19:43;217.17;;;127.57;;
17197;SDS011;8715;51.010;6.812;2022-07-11T19:22:09;178.17;;;121.33;;
17197;SDS011;8715;51.010;6.812;2022-07-11T19:24:34;193.73;;;125.10;;
17197;SDS011;8715;51.010;6.812;2022-07-11T19:27:00;178.83;;;122.07;;
17197;SDS011;8715;51.010;6.812;2022-07-11T19:29:25;208.90;;;126.40;;
17197;SDS011;8715;51.010;6.812;2022-07-11T19:31:51;177.63;;;122.83;;
17197;SDS011;8715;51.010;6.812;2022-07-11T19:34:16;182.43;;;122.60;;
17197;SDS011;8715;51.010;6.812;2022-07-11T19:36:42;181.87;;;122.57;;
17197;SDS011;8715;51.010;6.812;2022-07-11T19:39:08;181.70;;;121.27;;
17197;SDS011;8715;51.010;6.812;2022-07-11T19:41:34;187.27;;;123.97;;
17197;SDS011;8715;51.010;6.812;2022-07-11T19:44:00;182.77;;;122.93;;
17197;SDS011;8715;51.010;6.812;2022-07-11T19:46:25;189.33;;;122.87;;
17197;SDS011;8715;51.010;6.812;2022-07-11T19:48:52;183.57;;;123.30;;
17197;SDS011;8715;51.010;6.812;2022-07-11T19:51:17;186.67;;;121.73;;
17197;SDS011;8715;51.010;6.812;2022-07-11T19:53:43;183.07;;;120.43;;
17197;SDS011;8715;51.010;6.812;2022-07-11T19:56:08;197.40;;;124.17;;
17197;SDS011;8715;51.010;6.812;2022-07-11T19:58:51;185.40;;;122.50;;
17197;SDS011;8715;51.010;6.812;2022-07-11T20:01:17;202.97;;;124.20;;
17197;SDS011;8715;51.010;6.812;2022-07-11T20:03:42;181.13;;;122.17;;
17197;SDS011;8715;51.010;6.812;2022-07-11T20:06:08;195.43;;;123.70;;
17197;SDS011;8715;51.010;6.812;2022-07-11T20:08:33;191.60;;;124.10;;
17197;SDS011;8715;51.010;6.812;2022-07-11T20:10:58;180.40;;;120.90;;
17197;SDS011;8715;51.010;6.812;2022-07-11T20:13:24;181.47;;;123.37;;
17197;SDS011;8715;51.010;6.812;2022-07-11T20:15:49;181.50;;;120.80;;
17197;SDS011;8715;51.010;6.812;2022-07-11T20:18:16;200.10;;;124.63;;
17197;SDS011;8715;51.010;6.812;2022-07-11T20:20:42;182.77;;;122.60;;
17197;SDS011;8715;51.010;6.812;2022-07-11T20:23:07;195.33;;;124.87;;
17197;SDS011;8715;51.010;6.812;2022-07-11T20:25:33;195.27;;;125.37;;
17197;SDS011;8715;51.010;6.812;2022-07-11T20:27:58;177.93;;;121.93;;
17197;SDS011;8715;51.010;6.812;2022-07-11T20:30:27;181.90;;;122.60;;
17197;SDS011;8715;51.010;6.812;2022-07-11T20:32:52;187.50;;;122.77;;
17197;SDS011;8715;51.010;6.812;2022-07-11T20:35:18;190.83;;;122.13;;
17197;SDS011;8715;51.010;6.812;2022-07-11T20:37:43;198.03;;;122.37;;
17197;SDS011;8715;51.010;6.812;2022-07-11T20:40:09;184.53;;;122.50;;
17197;SDS011;8715;51.010;6.812;2022-07-11T20:42:34;188.80;;;122.03;;
17197;SDS011;8715;51.010;6.812;2022-07-11T20:45:00;185.93;;;122.10;;
17197;SDS011;8715;51.010;6.812;2022-07-11T20:47:25;193.67;;;123.93;;
17197;SDS011;8715;51.010;6.812;2022-07-11T20:49:51;217.27;;;127.23;;
17197;SDS011;8715;51.010;6.812;2022-07-11T20:52:16;194.27;;;124.03;;
17197;SDS011;8715;51.010;6.812;2022-07-11T20:54:41;207.63;;;125.27;;
17197;SDS011;8715;51.010;6.812;2022-07-11T20:57:07;200.77;;;124.00;;
17197;SDS011;8715;51.010;6.812;2022-07-11T20:59:33;189.83;;;123.00;;
17197;SDS011;8715;51.010;6.812;2022-07-11T21:01:59;189.70;;;123.27;;
17197;SDS011;8715;51.010;6.812;2022-07-11T21:04:25;190.10;;;122.80;;
17197;SDS011;8715;51.010;6.812;2022-07-11T21:06:52;192.67;;;122.23;;
17197;SDS011;8715;51.010;6.812;2022-07-11T21:09:18;193.90;;;122.03;;
17197;SDS011;8715;51.010;6.812;2022-07-11T21:11:43;189.63;;;122.73;;
17197;SDS011;8715;51.010;6.812;2022-07-11T21:14:09;201.07;;;123.17;;
17197;SDS011;8715;51.010;6.812;2022-07-11T21:16:35;194.67;;;122.67;;
17197;SDS011;8715;51.010;6.812;2022-07-11T21:19:00;190.00;;;121.93;;
17197;SDS011;8715;51.010;6.812;2022-07-11T21:21:26;203.93;;;125.53;;
17197;SDS011;8715;51.010;6.812;2022-07-11T21:23:52;193.57;;;121.97;;
17197;SDS011;8715;51.010;6.812;2022-07-11T21:26:18;202.43;;;125.17;;
17197;SDS011;8715;51.010;6.812;2022-07-11T21:28:44;184.10;;;120.73;;
17197;SDS011;8715;51.010;6.812;2022-07-11T21:31:09;183.30;;;121.03;;
17197;SDS011;8715;51.010;6.812;2022-07-11T21:33:34;208.50;;;124.43;;
17197;SDS011;8715;51.010;6.812;2022-07-11T21:36:00;201.53;;;123.67;;
17197;SDS011;8715;51.010;6.812;2022-07-11T21:38:25;202.10;;;125.20;;
17197;SDS011;8715;51.010;6.812;2022-07-11T21:40:51;190.43;;;121.93;;
17197;SDS011;8715;51.010;6.812;2022-07-11T21:43:16;191.87;;;121.93;;
17197;SDS011;8715;51.010;6.812;2022-07-11T21:45:42;197.10;;;122.70;;
17197;SDS011;8715;51.010;6.812;2022-07-11T21:48:07;202.87;;;123.33;;
17197;SDS011;8715;51.010;6.812;2022-07-11T21:50:33;198.13;;;123.87;;
17197;SDS011;8715;51.010;6.812;2022-07-11T21:52:58;192.20;;;123.17;;
17197;SDS011;8715;51.010;6.812;2022-07-11T21:55:24;195.60;;;123.13;;
17197;SDS011;8715;51.010;6.812;2022-07-11T21:57:49;190.53;;;121.77;;
17197;SDS011;8715;51.010;6.812;2022-07-11T22:00:15;187.73;;;121.60;;
17197;SDS011;8715;51.010;6.812;2022-07-11T22:02:41;202.40;;;123.73;;
17197;SDS011;8715;51.010;6.812;2022-07-11T22:05:07;198.17;;;124.37;;
17197;SDS011;8715;51.010;6.812;2022-07-11T22:07:33;202.53;;;123.77;;
17197;SDS011;8715;51.010;6.812;2022-07-11T22:09:59;223.00;;;129.27;;
17197;SDS011;8715;51.010;6.812;2022-07-11T22:12:25;186.13;;;122.40;;
17197;SDS011;8715;51.010;6.812;2022-07-11T22:14:50;187.57;;;122.10;;
17197;SDS011;8715;51.010;6.812;2022-07-11T22:17:16;191.87;;;122.03;;
17197;SDS011;8715;51.010;6.812;2022-07-11T22:19:42;201.17;;;124.47;;
17197;SDS011;8715;51.010;6.812;2022-07-11T22:22:07;199.73;;;123.17;;
17197;SDS011;8715;51.010;6.812;2022-07-11T22:24:32;193.83;;;122.93;;
17197;SDS011;8715;51.010;6.812;2022-07-11T22:26:57;203.10;;;124.77;;
17197;SDS011;8715;51.010;6.812;2022-07-11T22:29:23;191.00;;;122.23;;
17197;SDS011;8715;51.010;6.812;2022-07-11T22:31:48;197.23;;;124.07;;
17197;SDS011;8715;51.010;6.812;2022-07-11T22:34:14;189.80;;;121.63;;
17197;SDS011;8715;51.010;6.812;2022-07-11T22:36:40;189.53;;;121.90;;
17197;SDS011;8715;51.010;6.812;2022-07-11T22:39:06;196.30;;;123.97;;
17197;SDS011;8715;51.010;6.812;2022-07-11T22:41:31;196.30;;;123.27;;
17197;SDS011;8715;51.010;6.812;2022-07-11T22:43:56;192.67;;;124.10;;
17197;SDS011;8715;51.010;6.812;2022-07-11T22:46:22;190.47;;;121.50;;
17197;SDS011;8715;51.010;6.812;2022-07-11T22:48:47;192.30;;;122.10;;
17197;SDS011;8715;51.010;6.812;2022-07-11T22:51:12;192.97;;;123.63;;
17197;SDS011;8715;51.010;6.812;2022-07-11T22:53:38;207.93;;;124.33;;
17197;SDS011;8715;51.010;6.812;2022-07-11T22:56:03;198.13;;;123.67;;
17197;SDS011;8715;51.010;6.812;2022-07-11T22:58:29;191.40;;;124.50;;
17197;SDS011;8715;51.010;6.812;2022-07-11T23:00:54;198.20;;;123.67;;
17197;SDS011;8715;51.010;6.812;2022-07-11T23:03:19;200.60;;;124.07;;
17197;SDS011;8715;51.010;6.812;2022-07-11T23:05:45;191.30;;;122.13;;
17197;SDS011;8715;51.010;6.812;2022-07-11T23:08:11;207.00;;;125.23;;
17197;SDS011;8715;51.010;6.812;2022-07-11T23:10:36;205.73;;;123.93;;
17197;SDS011;8715;51.010;6.812;2022-07-11T23:13:02;193.70;;;123.40;;
17197;SDS011;8715;51.010;6.812;2022-07-11T23:15:27;212.73;;;124.73;;
17197;SDS011;8715;51.010;6.812;2022-07-11T23:17:54;205.80;;;123.47;;
17197;SDS011;8715;51.010;6.812;2022-07-11T23:20:20;193.90;;;122.80;;
17197;SDS011;8715;51.010;6.812;2022-07-11T23:22:45;195.33;;;123.43;;
17197;SDS011;8715;51.010;6.812;2022-07-11T23:25:11;196.30;;;123.43;;
17197;SDS011;8715;51.010;6.812;2022-07-11T23:27:36;199.27;;;124.40;;
17197;SDS011;8715;51.010;6.812;2022-07-11T23:30:02;222.17;;;128.40;;
17197;SDS011;8715;51.010;6.812;2022-07-11T23:32:27;203.63;;;126.57;;
17197;SDS011;8715;51.010;6.812;2022-07-11T23:34:53;183.90;;;121.87;;
17197;SDS011;8715;51.010;6.812;2022-07-11T23:37:18;193.87;;;124.37;;
17197;SDS011;8715;51.010;6.812;2022-07-11T23:39:43;194.97;;;122.93;;
17197;SDS011;8715;51.010;6.812;2022-07-11T23:42:11;198.80;;;123.67;;
17197;SDS011;8715;51.010;6.812;2022-07-11T23:44:36;217.50;;;125.53;;
17197;SDS011;8715;51.010;6.812;2022-07-11T23:47:02;188.47;;;121.70;;
17197;SDS011;8715;51.010;6.812;2022-07-11T23:49:27;194.07;;;122.77;;
17197;SDS011;8715;51.010;6.812;2022-07-11T23:51:53;185.13;;;121.97;;
17197;SDS011;8715;51.010;6.812;2022-07-11T23:54:18;188.10;;;122.00;;
17197;SDS011;8715;51.010;6.812;2022-07-11T23:56:43;189.33;;;120.53;;
17197;SDS011;8715;51.010;6.812;2022-07-11T23:59:09;208.33;;;124.70;;
